createdAt,value
2023-02-12T00:00:52.687Z,34.95
2023-02-12T00:03:19.118Z,30.83
2023-02-12T00:05:45.739Z,42.15
2023-02-12T00:08:16.166Z,39.88
2023-02-12T00:10:46.449Z,43.80
2023-02-12T00:13:13.137Z,37.13
2023-02-12T00:15:40.670Z,47.17
2023-02-12T00:18:07.544Z,30.15
2023-02-12T00:20:34.346Z,40.38
2023-02-12T00:23:03.241Z,39.67
2023-02-12T00:25:29.871Z,28.48
2023-02-12T00:27:56.238Z,47.97
2023-02-12T00:30:22.704Z,50.40
2023-02-12T00:32:49.239Z,39.05
2023-02-12T00:35:16.153Z,35.22
2023-02-12T00:37:42.764Z,35.15
2023-02-12T00:40:09.708Z,45.88
2023-02-12T00:42:36.056Z,42.47
2023-02-12T00:45:04.747Z,33.28
2023-02-12T00:47:31.178Z,21.23
2023-02-12T00:49:57.550Z,28.95
2023-02-12T00:52:23.883Z,29.40
2023-02-12T00:54:50.290Z,37.38
2023-02-12T00:57:16.652Z,34.40
2023-02-12T00:59:43.096Z,43.88
2023-02-12T01:02:09.615Z,39.53
2023-02-12T01:04:36.093Z,26.27
2023-02-12T01:07:02.595Z,33.92
2023-02-12T01:09:29.154Z,35.70
2023-02-12T01:11:55.561Z,32.95
2023-02-12T01:14:22.028Z,26.83
2023-02-12T01:16:48.529Z,41.38
2023-02-12T01:19:15.319Z,32.05
2023-02-12T01:21:44.128Z,31.58
2023-02-12T01:24:15.573Z,30.08
2023-02-12T01:26:42.071Z,37.27
2023-02-12T01:29:11.688Z,31.55
2023-02-12T01:31:39.847Z,40.10
2023-02-12T01:34:07.817Z,29.77
2023-02-12T01:36:37.415Z,37.20
2023-02-12T01:39:05.481Z,36.17
2023-02-12T01:41:40.455Z,28.83
2023-02-12T01:44:13.006Z,31.20
2023-02-12T01:46:39.975Z,29.83
2023-02-12T01:49:12.528Z,22.17
2023-02-12T01:51:40.629Z,28.27
2023-02-12T01:54:09.900Z,22.27
2023-02-12T01:56:36.524Z,23.08
2023-02-12T01:59:03.392Z,33.88
2023-02-12T02:01:32.466Z,37.13
2023-02-12T02:04:05.350Z,37.72
2023-02-12T02:06:39.660Z,32.60
2023-02-12T02:09:06.232Z,30.80
2023-02-12T02:11:50.965Z,26.13
2023-02-12T02:14:32.844Z,27.38
2023-02-12T02:17:20.665Z,29.60
2023-02-12T02:20:24.273Z,25.73
2023-02-12T02:23:12.880Z,26.65
2023-02-12T02:26:04.174Z,20.38
2023-02-12T02:28:42.958Z,40.17
2023-02-12T02:31:41.035Z,26.88
2023-02-12T02:34:19.320Z,39.10
2023-02-12T02:37:00.569Z,32.65
2023-02-12T02:39:59.856Z,40.53
2023-02-12T02:42:37.586Z,25.15
2023-02-12T02:45:18.822Z,33.33
2023-02-12T02:47:55.957Z,26.75
2023-02-12T02:50:25.936Z,27.63
2023-02-12T02:52:57.225Z,21.38
2023-02-12T02:55:26.931Z,33.33
2023-02-12T02:58:05.988Z,20.58
2023-02-12T03:00:38.809Z,21.48
2023-02-12T03:03:17.016Z,31.45
2023-02-12T03:05:49.629Z,26.85
2023-02-12T03:08:25.130Z,34.90
2023-02-12T03:10:57.464Z,27.65
2023-02-12T03:13:34.088Z,19.48
2023-02-12T03:16:06.863Z,21.73
2023-02-12T03:18:42.801Z,26.08
2023-02-12T03:21:13.981Z,26.90
2023-02-12T03:23:52.872Z,27.17
2023-02-12T03:26:31.015Z,25.50
2023-02-12T03:28:57.456Z,21.65
2023-02-12T03:31:45.523Z,31.70
2023-02-12T03:34:35.063Z,40.75
2023-02-12T03:37:18.004Z,38.55
2023-02-12T03:40:00.919Z,29.60
2023-02-12T03:42:33.769Z,26.83
2023-02-12T03:45:33.824Z,25.50
2023-02-12T03:48:28.781Z,29.63
2023-02-12T03:51:13.214Z,24.13
2023-02-12T03:53:39.685Z,35.33
2023-02-12T03:56:14.075Z,24.88
2023-02-12T03:58:42.943Z,35.85
2023-02-12T04:01:09.979Z,36.13
2023-02-12T04:03:36.625Z,28.88
2023-02-12T04:06:03.458Z,25.67
2023-02-12T04:08:32.384Z,46.53
2023-02-12T04:11:13.571Z,28.88
2023-02-12T04:13:54.755Z,34.20
2023-02-12T04:16:37.853Z,30.73
2023-02-12T04:19:04.899Z,43.15
2023-02-12T04:21:55.840Z,29.25
2023-02-12T04:24:40.361Z,33.20
2023-02-12T04:27:24.275Z,27.05
2023-02-12T04:30:05.680Z,37.35
2023-02-12T04:32:52.827Z,29.63
2023-02-12T04:35:22.447Z,29.58
2023-02-12T04:37:55.305Z,32.60
2023-02-12T04:40:23.056Z,33.67
2023-02-12T04:42:52.270Z,25.50
2023-02-12T04:45:31.276Z,23.85
2023-02-12T04:47:57.949Z,24.80
2023-02-12T04:50:24.772Z,29.42
2023-02-12T04:52:52.862Z,29.00
2023-02-12T04:55:19.534Z,25.58
2023-02-12T04:57:46.012Z,26.77
2023-02-12T05:00:17.399Z,33.55
2023-02-12T05:02:44.021Z,36.20
2023-02-12T05:05:10.658Z,38.22
2023-02-12T05:07:37.345Z,21.25
2023-02-12T05:10:04.192Z,30.27
2023-02-12T05:12:30.768Z,24.63
2023-02-12T05:14:57.999Z,34.58
2023-02-12T05:17:24.968Z,38.40
2023-02-12T05:19:51.766Z,27.40
2023-02-12T05:22:18.380Z,26.92
2023-02-12T05:24:45.395Z,29.13
2023-02-12T05:27:11.939Z,32.97
2023-02-12T05:29:38.840Z,23.17
2023-02-12T05:32:07.309Z,26.30
2023-02-12T05:34:36.720Z,29.38
2023-02-12T05:37:03.511Z,25.90
2023-02-12T05:39:39.273Z,28.52
2023-02-12T05:42:05.939Z,34.10
2023-02-12T05:44:32.464Z,26.45
2023-02-12T05:47:06.755Z,36.42
2023-02-12T05:49:36.439Z,27.38
2023-02-12T05:52:03.224Z,23.60
2023-02-12T05:54:29.643Z,29.02
2023-02-12T05:56:56.386Z,32.60
2023-02-12T05:59:23.823Z,22.33
2023-02-12T06:01:52.288Z,29.58
2023-02-12T06:04:29.328Z,28.42
2023-02-12T06:06:56.663Z,23.05
2023-02-12T06:09:23.866Z,27.27
2023-02-12T06:11:50.541Z,25.52
2023-02-12T06:14:21.505Z,30.65
2023-02-12T06:16:50.260Z,24.23
2023-02-12T06:22:03.582Z,29.23
2023-02-12T06:24:30.215Z,29.15
2023-02-12T06:26:58.774Z,25.80
2023-02-12T06:29:27.361Z,23.02
2023-02-12T06:31:57.757Z,21.13
2023-02-12T06:34:24.236Z,25.33
2023-02-12T06:36:53.454Z,17.38
2023-02-12T06:39:19.879Z,27.92
2023-02-12T06:41:46.636Z,38.58
2023-02-12T06:44:13.431Z,27.73
2023-02-12T06:46:42.133Z,29.52
2023-02-12T06:49:08.579Z,27.95
2023-02-12T06:51:40.336Z,32.03
2023-02-12T06:54:16.829Z,18.83
2023-02-12T06:56:46.645Z,27.27
2023-02-12T06:59:15.554Z,27.48
2023-02-12T07:01:42.438Z,41.53
2023-02-12T07:04:21.015Z,48.47
2023-02-12T07:06:47.857Z,42.60
2023-02-12T07:09:15.451Z,54.03
2023-02-12T07:11:41.851Z,81.88
2023-02-12T07:14:13.929Z,66.90
2023-02-12T07:16:40.645Z,52.03
2023-02-12T07:19:07.230Z,57.83
2023-02-12T07:21:42.783Z,57.75
2023-02-12T07:24:18.101Z,65.75
2023-02-12T07:26:44.670Z,46.40
2023-02-12T07:29:13.527Z,36.28
2023-02-12T07:31:41.749Z,41.88
2023-02-12T07:34:10.105Z,28.92
2023-02-12T07:36:37.530Z,35.10
2023-02-12T07:39:04.673Z,37.78
2023-02-12T07:41:34.009Z,30.55
2023-02-12T07:44:07.628Z,46.22
2023-02-12T07:46:39.576Z,42.10
2023-02-12T07:49:07.940Z,38.90
2023-02-12T07:51:35.667Z,35.00
2023-02-12T07:54:09.985Z,32.85
2023-02-12T07:56:40.842Z,28.17
2023-02-12T07:59:11.241Z,35.17
2023-02-12T08:01:46.208Z,24.40
2023-02-12T08:04:15.419Z,22.88
2023-02-12T08:06:45.044Z,24.35
2023-02-12T08:09:15.811Z,35.70
2023-02-12T08:11:42.895Z,27.88
2023-02-12T08:14:12.628Z,31.92
2023-02-12T08:16:40.943Z,33.05
2023-02-12T08:19:19.418Z,39.90
2023-02-12T08:21:57.314Z,33.60
2023-02-12T08:24:28.629Z,33.72
2023-02-12T08:26:55.958Z,29.90
2023-02-12T08:29:31.422Z,28.30
2023-02-12T08:32:03.216Z,30.52
2023-02-12T08:34:45.169Z,35.45
2023-02-12T08:37:14.805Z,34.95
2023-02-12T08:39:43.617Z,28.13
2023-02-12T08:42:14.799Z,33.55
2023-02-12T08:44:42.565Z,29.88
2023-02-12T08:47:10.047Z,38.10
2023-02-12T08:49:36.590Z,32.63
2023-02-12T08:52:05.236Z,31.65
2023-02-12T08:54:34.129Z,36.13
2023-02-12T08:57:02.422Z,36.17
2023-02-12T08:59:29.843Z,40.95
2023-02-12T09:01:56.849Z,36.47
2023-02-12T09:04:30.279Z,42.10
2023-02-12T09:06:59.414Z,28.83
2023-02-12T09:09:26.002Z,32.28
2023-02-12T09:11:56.478Z,35.17
2023-02-12T09:14:31.335Z,25.38
2023-02-12T09:17:03.253Z,23.58
2023-02-12T09:19:29.801Z,27.50
2023-02-12T09:21:58.982Z,23.13
2023-02-12T09:24:30.452Z,34.05
2023-02-12T09:26:57.023Z,30.33
2023-02-12T09:29:23.417Z,32.47
2023-02-12T09:31:52.284Z,40.42
2023-02-12T09:34:18.932Z,41.03
2023-02-12T09:36:47.815Z,32.80
2023-02-12T09:39:19.972Z,33.88
2023-02-12T09:42:08.430Z,28.13
2023-02-12T09:44:42.704Z,33.70
2023-02-12T09:47:30.283Z,29.05
2023-02-12T09:50:11.000Z,27.45
2023-02-12T09:52:37.860Z,32.50
2023-02-12T09:55:05.092Z,29.20
2023-02-12T09:57:37.822Z,32.67
2023-02-12T10:00:16.156Z,30.17
2023-02-12T10:02:42.821Z,31.90
2023-02-12T10:05:35.096Z,29.92
2023-02-12T10:08:26.071Z,42.25
2023-02-12T10:11:22.851Z,40.45
2023-02-12T10:14:08.313Z,33.38
2023-02-12T10:17:03.447Z,33.95
2023-02-12T10:19:51.229Z,32.35
2023-02-12T10:22:23.719Z,30.02
2023-02-12T10:24:59.258Z,31.80
2023-02-12T10:27:46.772Z,30.70
2023-02-12T10:30:23.774Z,29.23
2023-02-12T10:32:54.877Z,37.78
2023-02-12T10:35:25.035Z,36.17
2023-02-12T10:38:04.418Z,39.65
2023-02-12T10:40:37.720Z,38.70
2023-02-12T10:43:04.249Z,36.28
2023-02-12T10:45:33.969Z,35.80
2023-02-12T10:48:16.814Z,35.70
2023-02-12T10:51:05.360Z,33.33
2023-02-12T10:53:43.420Z,31.33
2023-02-12T10:56:13.059Z,28.58
2023-02-12T10:58:42.611Z,38.17
2023-02-12T11:01:19.871Z,37.80
2023-02-12T11:03:46.863Z,32.47
2023-02-12T11:06:22.753Z,35.42
2023-02-12T11:08:51.856Z,33.15
2023-02-12T11:11:23.023Z,33.75
2023-02-12T11:14:04.044Z,34.30
2023-02-12T11:16:32.284Z,23.85
2023-02-12T11:19:01.429Z,32.60
2023-02-12T11:21:28.133Z,35.38
2023-02-12T11:23:56.934Z,22.17
2023-02-12T11:26:30.666Z,22.15
2023-02-12T11:29:04.067Z,17.90
2023-02-12T11:31:33.550Z,16.48
2023-02-12T11:34:06.350Z,16.38
2023-02-12T11:36:36.088Z,20.77
2023-02-12T11:39:02.800Z,17.33
2023-02-12T11:41:41.175Z,15.13
2023-02-12T11:44:13.348Z,12.63
2023-02-12T11:49:09.328Z,14.10
2023-02-12T11:51:36.644Z,12.18
2023-02-12T11:54:06.217Z,7.32
2023-02-12T11:56:45.526Z,5.85
2023-02-12T11:59:42.709Z,9.57
2023-02-12T12:02:23.621Z,6.03
2023-02-12T12:04:56.025Z,4.30
2023-02-12T12:07:32.015Z,4.78
2023-02-12T12:10:06.781Z,9.48
2023-02-12T12:12:42.013Z,10.40
2023-02-12T12:15:51.020Z,4.00
2023-02-12T12:18:52.743Z,6.28
2023-02-12T12:21:30.849Z,4.28
2023-02-12T12:24:02.713Z,6.10
2023-02-12T12:26:31.704Z,6.65
2023-02-12T12:29:14.048Z,3.22
2023-02-12T12:34:13.793Z,2.05
2023-02-12T12:37:18.745Z,2.08
2023-02-12T12:39:54.253Z,1.90
2023-02-12T12:42:37.693Z,1.80
2023-02-12T12:45:31.843Z,1.75
2023-02-12T12:48:13.623Z,2.15
2023-02-12T12:50:46.801Z,3.40
2023-02-12T12:53:18.551Z,2.45
2023-02-12T12:56:00.274Z,1.48
2023-02-12T12:58:54.082Z,2.10
2023-02-12T13:01:26.233Z,1.42
2023-02-12T13:06:37.442Z,2.13
2023-02-12T13:09:21.260Z,1.88
2023-02-12T13:12:02.956Z,3.50
2023-02-12T13:14:47.382Z,1.50
2023-02-12T13:17:41.106Z,2.22
2023-02-12T13:20:31.607Z,3.17
2023-02-12T13:23:09.504Z,3.90
2023-02-12T13:25:46.548Z,4.10
2023-02-12T13:28:19.301Z,3.05
2023-02-12T13:30:52.975Z,3.22
2023-02-12T13:33:27.245Z,2.42
2023-02-12T13:35:59.323Z,7.38
2023-02-12T13:38:30.890Z,4.00
2023-02-12T13:41:04.783Z,4.47
2023-02-12T13:43:50.065Z,5.45
2023-02-12T13:46:30.124Z,4.55
2023-02-12T13:49:10.960Z,2.05
2023-02-12T13:51:47.675Z,2.33
2023-02-12T13:54:27.097Z,1.95
2023-02-12T13:56:57.465Z,3.88
2023-02-12T13:59:32.977Z,2.45
2023-02-12T14:02:23.931Z,4.70
2023-02-12T14:04:55.753Z,2.65
2023-02-12T14:07:26.865Z,3.47
2023-02-12T14:09:53.208Z,2.38
2023-02-12T14:12:37.323Z,4.97
2023-02-12T14:15:18.109Z,2.92
2023-02-12T14:18:06.696Z,4.70
2023-02-12T14:20:37.390Z,4.50
2023-02-12T14:23:40.997Z,5.68
2023-02-12T14:26:14.379Z,5.32
2023-02-12T14:28:54.884Z,4.22
2023-02-12T14:31:23.547Z,3.63
2023-02-12T14:34:15.686Z,4.45
2023-02-12T14:37:09.150Z,4.07
2023-02-12T14:39:35.697Z,5.32
2023-02-12T14:42:14.673Z,3.78
2023-02-12T14:44:59.786Z,6.60
2023-02-12T14:47:29.290Z,7.82
2023-02-12T14:50:01.393Z,5.22
2023-02-12T14:52:35.181Z,8.35
2023-02-12T14:55:22.983Z,7.53
2023-02-12T14:57:54.775Z,9.02
2023-02-12T15:00:35.126Z,5.72
2023-02-12T15:03:27.176Z,6.47
2023-02-12T15:06:02.770Z,4.80
2023-02-12T15:08:44.643Z,10.05
2023-02-12T15:11:40.370Z,5.78
2023-02-12T15:14:24.638Z,8.43
2023-02-12T15:16:58.490Z,6.60
2023-02-12T15:19:43.311Z,6.75
2023-02-12T15:22:38.212Z,6.90
2023-02-12T15:25:24.661Z,4.45
2023-02-12T15:28:18.936Z,8.75
2023-02-12T15:30:48.988Z,5.78
2023-02-12T15:33:36.813Z,12.70
2023-02-12T15:36:04.801Z,7.35
2023-02-12T15:38:41.587Z,7.72
2023-02-12T15:41:09.156Z,6.90
2023-02-12T15:43:43.053Z,7.43
2023-02-12T15:46:17.870Z,7.70
2023-02-12T15:49:03.487Z,4.65
2023-02-12T15:51:44.198Z,6.88
2023-02-12T15:54:18.448Z,7.35
2023-02-12T15:56:48.324Z,11.55
2023-02-12T15:59:23.519Z,9.10
2023-02-12T16:01:58.756Z,18.63
2023-02-12T16:04:31.672Z,11.95
2023-02-12T16:07:00.121Z,15.52
2023-02-12T16:09:51.133Z,16.77
2023-02-12T16:12:31.859Z,17.33
2023-02-12T16:15:05.573Z,6.13
2023-02-12T16:17:34.327Z,4.72
2023-02-12T16:20:00.712Z,5.05
2023-02-12T16:22:40.997Z,4.40
2023-02-12T16:25:17.608Z,5.22
2023-02-12T16:27:59.538Z,2.72
2023-02-12T16:30:30.896Z,8.70
2023-02-12T16:32:58.970Z,3.40
2023-02-12T16:35:40.215Z,6.93
2023-02-12T16:38:45.097Z,6.50
2023-02-12T16:41:16.093Z,9.93
2023-02-12T16:43:43.682Z,39.55
2023-02-12T16:46:12.805Z,101.32
2023-02-12T16:48:42.798Z,51.33
2023-02-12T16:51:29.870Z,33.65
2023-02-12T16:54:07.272Z,24.77
2023-02-12T16:56:40.310Z,18.85
2023-02-12T16:59:09.090Z,11.88
2023-02-12T17:01:37.000Z,10.10
2023-02-12T17:04:18.561Z,13.93
2023-02-12T17:06:47.939Z,23.35
2023-02-12T17:09:14.429Z,18.05
2023-02-12T17:11:42.185Z,24.63
2023-02-12T17:14:16.882Z,14.80
2023-02-12T17:16:43.908Z,19.20
2023-02-12T17:19:13.956Z,12.95
2023-02-12T17:21:43.670Z,16.63
2023-02-12T17:24:30.692Z,16.30
2023-02-12T17:27:01.974Z,18.27
2023-02-12T17:29:29.230Z,17.00
2023-02-12T17:32:00.190Z,18.55
2023-02-12T17:34:39.687Z,20.23
2023-02-12T17:37:15.682Z,21.40
2023-02-12T17:39:42.032Z,26.92
2023-02-12T17:42:08.573Z,19.13
2023-02-12T17:44:35.091Z,28.73
2023-02-12T17:47:01.472Z,29.60
2023-02-12T17:49:28.039Z,28.75
2023-02-12T17:51:54.590Z,30.00
2023-02-12T17:54:21.276Z,26.65
2023-02-12T17:56:50.621Z,29.70
2023-02-12T17:59:17.364Z,28.08
2023-02-12T18:01:44.152Z,37.60
2023-02-12T18:04:13.012Z,28.38
2023-02-12T18:06:39.615Z,33.53
2023-02-12T18:09:06.231Z,27.40
2023-02-12T18:11:33.037Z,28.48
2023-02-12T18:14:02.591Z,26.02
2023-02-12T18:16:31.668Z,30.00
2023-02-12T18:18:59.903Z,33.95
2023-02-12T18:21:26.457Z,33.97
2023-02-12T18:23:54.049Z,37.67
2023-02-12T18:26:21.353Z,35.85
2023-02-12T18:28:50.026Z,27.63
2023-02-12T18:31:19.320Z,34.60
2023-02-12T18:33:48.678Z,33.78
2023-02-12T18:36:17.500Z,37.85
2023-02-12T18:38:45.734Z,43.03
2023-02-12T18:41:18.023Z,39.53
2023-02-12T18:43:45.045Z,40.08
2023-02-12T18:46:20.643Z,44.13
2023-02-12T18:48:47.745Z,39.40
2023-02-12T18:51:21.025Z,41.90
2023-02-12T18:53:48.770Z,40.50
2023-02-12T18:56:15.320Z,39.53
2023-02-12T18:58:41.806Z,45.72
2023-02-12T19:01:15.728Z,40.20
2023-02-12T19:03:42.737Z,43.15
2023-02-12T19:06:09.145Z,44.60
2023-02-12T19:08:35.847Z,41.10
2023-02-12T19:11:04.577Z,46.70
2023-02-12T19:13:33.401Z,39.42
2023-02-12T19:16:03.024Z,42.13
2023-02-12T19:18:29.459Z,42.95
2023-02-12T19:21:01.337Z,51.03
2023-02-12T19:23:27.977Z,50.38
2023-02-12T19:26:06.256Z,52.17
2023-02-12T19:28:36.346Z,46.65
2023-02-12T19:31:18.192Z,47.65
2023-02-12T19:33:45.578Z,54.60
2023-02-12T19:36:18.176Z,47.97
2023-02-12T19:38:47.624Z,48.13
2023-02-12T19:41:17.431Z,53.92
2023-02-12T19:43:44.379Z,54.35
2023-02-12T19:46:17.763Z,49.80
2023-02-12T19:48:59.399Z,56.97
2023-02-12T19:51:33.428Z,65.75
2023-02-12T19:54:01.950Z,52.92
2023-02-12T19:56:28.687Z,52.80
2023-02-12T19:59:00.930Z,57.53
2023-02-12T20:01:28.700Z,63.75
2023-02-12T20:03:57.488Z,62.53
2023-02-12T20:06:27.389Z,66.38
2023-02-12T20:08:53.870Z,75.18
2023-02-12T20:11:24.140Z,63.35
2023-02-12T20:13:51.252Z,62.38
2023-02-12T20:16:20.265Z,55.22
2023-02-12T20:18:49.202Z,61.45
2023-02-12T20:21:25.645Z,55.45
2023-02-12T20:23:52.126Z,53.42
2023-02-12T20:26:19.840Z,49.92
2023-02-12T20:28:49.934Z,51.25
2023-02-12T20:31:22.091Z,43.72
2023-02-12T20:33:52.809Z,39.97
2023-02-12T20:36:19.325Z,40.83
2023-02-12T20:38:47.231Z,35.85
2023-02-12T20:41:13.756Z,35.20
2023-02-12T20:43:43.089Z,45.97
2023-02-12T20:46:15.416Z,35.55
2023-02-12T20:48:42.659Z,33.35
2023-02-12T20:51:14.448Z,29.95
2023-02-12T20:53:42.115Z,30.40
2023-02-12T20:56:16.202Z,27.58
2023-02-12T20:58:44.974Z,31.70
2023-02-12T21:01:19.590Z,21.55
2023-02-12T21:03:46.085Z,23.70
2023-02-12T21:06:15.665Z,27.60
2023-02-12T21:08:42.725Z,23.67
2023-02-12T21:11:20.729Z,30.15
2023-02-12T21:14:02.338Z,24.60
2023-02-12T21:16:34.814Z,24.55
2023-02-12T21:19:01.867Z,19.30
2023-02-12T21:21:34.203Z,22.30
2023-02-12T21:24:07.113Z,23.73
2023-02-12T21:26:36.191Z,27.60
2023-02-12T21:29:03.583Z,29.00
2023-02-12T21:31:33.341Z,21.70
2023-02-12T21:34:08.606Z,26.13
2023-02-12T21:36:39.613Z,18.90
2023-02-12T21:39:08.860Z,21.75
2023-02-12T21:41:41.650Z,22.35
2023-02-12T21:44:12.035Z,19.88
2023-02-12T21:46:41.450Z,19.55
2023-02-12T21:49:08.304Z,21.73
2023-02-12T21:51:42.205Z,19.67
2023-02-12T21:54:12.580Z,24.80
2023-02-12T21:56:44.134Z,20.52
2023-02-12T21:59:20.010Z,26.13
2023-02-12T22:01:49.823Z,21.55
2023-02-12T22:04:20.321Z,22.17
2023-02-12T22:06:51.003Z,29.70
2023-02-12T22:09:22.277Z,25.33
2023-02-12T22:11:52.605Z,27.23
2023-02-12T22:14:20.716Z,44.65
2023-02-12T22:16:47.770Z,31.92
2023-02-12T22:19:15.338Z,37.42
2023-02-12T22:21:44.890Z,37.05
2023-02-12T22:24:16.207Z,44.67
2023-02-12T22:26:46.028Z,45.28
2023-02-12T22:29:17.890Z,50.22
2023-02-12T22:31:48.578Z,45.38
2023-02-12T22:34:19.025Z,39.42
2023-02-12T22:36:46.782Z,50.30
2023-02-12T22:39:14.250Z,56.13
2023-02-12T22:41:44.364Z,51.53
2023-02-12T22:44:13.185Z,53.33
2023-02-12T22:46:43.217Z,51.85
2023-02-12T22:49:15.779Z,39.88
2023-02-12T22:51:47.228Z,49.75
2023-02-12T22:54:18.795Z,46.43
2023-02-12T22:56:46.928Z,55.73
2023-02-12T22:59:13.561Z,52.33
2023-02-12T23:01:46.671Z,50.60
2023-02-12T23:04:18.211Z,46.08
2023-02-12T23:06:47.125Z,53.27
2023-02-12T23:09:24.396Z,50.28
2023-02-12T23:11:51.065Z,57.25
2023-02-12T23:14:18.159Z,48.90
2023-02-12T23:16:45.360Z,53.55
2023-02-12T23:19:12.348Z,48.25
2023-02-12T23:21:41.941Z,57.88
2023-02-12T23:24:15.603Z,42.22
2023-02-12T23:26:44.564Z,44.97
2023-02-12T23:29:11.131Z,49.92
2023-02-12T23:31:37.692Z,53.60
2023-02-12T23:34:04.294Z,57.33
2023-02-12T23:36:36.254Z,48.75
2023-02-12T23:39:05.860Z,45.33
2023-02-12T23:41:34.848Z,46.92
2023-02-12T23:44:11.777Z,46.83
2023-02-12T23:46:38.379Z,48.83
2023-02-12T23:49:05.588Z,46.92
2023-02-12T23:51:32.614Z,48.70
2023-02-12T23:54:04.350Z,45.42
2023-02-12T23:56:30.936Z,52.28
2023-02-12T23:59:10.796Z,49.88
